• Join FlightAware (Why Join?)
  • Login
  • US Flag 
11:55PM EDT


 

Airport Tracker/Info


-or-


 

Live Flight TrackerFlight Track Log ✈ BOE236 ✈ 14-Feb-2012 ✈ KBFI - KCOS

Flight Track Log - Related Links

Times and Time Zones

All times are in EST time to prevent confusion due to time zone crossing. See the BOE236 flight status page for this flight to view local times or setup timezone preferences in your user account.

Time Position Orientation Groundspeed Altitude Reporting Facility
EST Latitude Longitude Course Direction KTS MPH feet Rate Location/Type
01:39PM 47.5092 -122.2861 143° Southeast 151 174 1,100  Level Seattle Center
01:39PM 47.4989 -122.2747 141° Southeast 156 180 1,800 1,680 Climbing Seattle Center
01:40PM 47.4547 -122.2225 155° Southeast 224 258 3,500 2,280 Climbing Seattle Center
01:41PM 47.3967 -122.1828 171° South 241 277 6,500 3,060 Climbing Seattle Center
01:42PM 47.3153 -122.1636 170° South 250 288 9,800 2,340 Climbing Seattle Center
01:43PM 47.2383 -122.1436 170° South 293 337 11,300 1,980 Climbing Seattle Center
01:44PM 47.1478 -122.1203 170° South 330 380 13,900 2,460 Climbing Seattle Center
01:45PM 47.0539 -122.0961 171° South 343 395 16,400 2,400 Climbing Seattle Center
01:46PM 46.9547 -122.0728 170° South 362 417 18,800 2,220 Climbing Seattle Center
01:47PM 46.8528 -122.0464 171° South 374 430 21,000 1,980 Climbing Seattle Center
01:48PM 46.7447 -122.0203 165° South 391 450 22,900 1,980 Climbing Seattle Center
01:49PM 46.6108 -121.9669 122° Southeast 421 484 25,100 1,800 Climbing Seattle Center
01:51PM 46.5436 -121.8092 120° Southeast 468 539 26,700 1,680 Climbing Seattle Center
01:52PM 46.4783 -121.6464 118° Southeast 473 544 28,600 1,740 Climbing Seattle Center
01:53PM 46.4161 -121.4792 121° Southeast 486 559 30,300 1,440 Climbing Seattle Center
01:54PM 46.3456 -121.3072 120° Southeast 494 568 31,600 1,380 Climbing Seattle Center
01:55PM 46.2753 -121.1289 121° Southeast 506 582 33,200 1,680 Climbing Seattle Center
01:56PM 46.1867 -120.9142 120° Southeast 517 595 35,100 1,320 Climbing Seattle Center
01:57PM 46.1128 -120.7331 121° Southeast 523 602 36,000 900 Climbing Seattle Center
01:58PM 46.0381 -120.5525 121° Southeast 525 604 37,000 480 Climbing Seattle Center
01:59PM 45.9644 -120.3750 121° Southeast 522 601 37,000  Level Seattle Center
02:00PM 45.8906 -120.1997 121° Southeast 516 594 37,000  Level Seattle Center
02:01PM 45.8161 -120.0253 121° Southeast 515 593 37,000  Level Seattle Center
02:02PM 45.7425 -119.8494 100° East 515 593 37,000  Level Seattle Center
02:03PM 45.7169 -119.6506 92° East 513 590 37,000  Level Seattle Center
02:04PM 45.7108 -119.4436 92° East 523 602 37,000  Level Seattle Center
02:05PM 45.7053 -119.2372 91° East 521 600 37,000  Level Seattle Center
02:06PM 45.7014 -119.0317 89° East 519 597 37,000  Level Seattle Center
02:07PM 45.7047 -118.7883 85° East 513 590 37,000  Level Seattle Center
02:08PM 45.7167 -118.5856 86° East 514 592 37,000  Level Seattle Center
02:09PM 45.7264 -118.3811 86° East 515 593 37,000  Level Seattle Center
02:10PM 45.7361 -118.1778 86° East 515 593 37,000  Level Seattle Center
02:11PM 45.7458 -117.9742 87° East 516 594 37,000  Level Seattle Center
02:12PM 45.7542 -117.7722 86° East 513 590 37,000  Level Seattle Center
02:13PM 45.7633 -117.5639 87° East 514 592 37,000  Level Seattle Center
02:14PM 45.7725 -117.3356 86° East 514 592 37,000  Level Seattle Center
02:15PM 45.7808 -117.1411 87° East 512 589 37,000  Level Seattle Center
02:16PM 45.7889 -116.9456 87° East 512 589 37,000  Level Seattle Center
02:17PM 45.7964 -116.7181 87° East 511 588 37,000  Level Seattle Center
02:18PM 45.8031 -116.5247 87° East 509 586 37,000  Level Seattle Center
02:19PM 45.8111 -116.3019 88° East 503 579 37,000  Level Seattle Center
02:20PM 45.8164 -116.1108 88° East 501 577 37,000  Level Seattle Center
02:21PM 45.8219 -115.9192 88° East 501 577 37,000  Level Seattle Center
02:22PM 45.8272 -115.6992 87° East 497 572 37,000  Level Seattle Center
02:23PM 45.8331 -115.5081 88° East 499 574 37,000  Level Seattle Center
02:24PM 45.8372 -115.3172 88° East 500 575 37,000  Level Seattle Center
02:25PM 45.8417 -115.0942 88° East 500 575 37,000  Level Seattle Center
02:26PM 45.8450 -114.9031 90° East 500 575 37,000 180 Level Seattle Center
02:26PM 45.8453 -114.8367 89° East 498 573 37,300 600 Climbing Salt Lake Center
02:27PM 45.8483 -114.6456 89° East 499 574 37,800 480 Climbing Salt Lake Center
02:29PM 45.8519 -114.4139 89° East 513 590 38,300 660 Climbing Salt Lake Center
02:30PM 45.8542 -114.2333 89° East 526 605 39,200 1,200 Climbing Salt Lake Center
02:31PM 45.8578 -113.9850 90° East 524 603 40,900 780 Climbing Salt Lake Center
02:32PM 45.8586 -113.7869 89° East 507 583 40,900  Level Salt Lake Center
02:33PM 45.8606 -113.5975 89° East 509 586 41,000  Climbing Salt Lake Center
02:34PM 45.8625 -113.3967 90° East 507 583 41,000  Level Salt Lake Center
02:35PM 45.8619 -113.1558 90° East 504 580 41,000  Level Salt Lake Center
02:36PM 45.8628 -112.9531 90° East 506 582 41,000  Level Salt Lake Center
02:37PM 45.8633 -112.7464 90° East 513 590 41,000  Level Salt Lake Center
02:38PM 45.8625 -112.5428 90° East 512 589 41,000  Level Salt Lake Center
02:39PM 45.8619 -112.3417 90° East 508 585 41,000  Level Salt Lake Center
02:40PM 45.8614 -112.1400 90° East 506 582 41,000  Level Salt Lake Center
02:41PM 45.8611 -111.9367 90° East 508 585 41,000  Level Salt Lake Center
02:42PM 45.8606 -111.6900 90° East 513 590 41,000  Level Salt Lake Center
02:43PM 45.8594 -111.4808 90° East 519 597 41,000  Level Salt Lake Center
02:44PM 45.8586 -111.2675 91° East 526 605 41,000  Level Salt Lake Center
02:45PM 45.8564 -111.0508 90° East 520 598 41,000  Level Salt Lake Center
02:46PM 45.8550 -110.8406 91° East 519 597 41,000  Level Salt Lake Center
02:47PM 45.8525 -110.6314 91° East 522 601 41,000  Level Salt Lake Center
02:48PM 45.8483 -110.4069 91° East 517 595 41,000  Level Salt Lake Center
02:49PM 45.8458 -110.2086 92° East 518 596 41,000  Level Salt Lake Center
02:50PM 45.8419 -110.0111 91° East 518 596 41,000  Level Salt Lake Center
02:51PM 45.8383 -109.7769 91° East 524 603 41,000  Level Salt Lake Center
02:52PM 45.8353 -109.5756 92° East 526 605 41,000  Level Salt Lake Center
02:53PM 45.8294 -109.3419 92° East 525 604 41,000  Level Salt Lake Center
02:54PM 45.8236 -109.1400 92° East 528 608 41,000  Level Salt Lake Center
02:55PM 45.8169 -108.9039 93° East 530 610 41,000  Level Salt Lake Center
02:56PM 45.8106 -108.7025 131° Southeast 529 609 41,000  Level Salt Lake Center
02:57PM 45.7103 -108.5353 148° Southeast 517 595 41,000  Level Salt Lake Center
02:58PM 45.5947 -108.4306 148° Southeast 514 592 41,000  Level Salt Lake Center
02:59PM 45.4792 -108.3267 148° Southeast 513 590 41,000  Level Salt Lake Center
03:00PM 45.3444 -108.2056 148° Southeast 512 589 41,000  Level Salt Lake Center
03:02PM 45.2286 -108.1022 148° Southeast 513 590 41,000  Level Salt Lake Center
03:03PM 45.0917 -107.9808 148° Southeast 517 595 41,000  Level Salt Lake Center
03:04PM 44.9772 -107.8789 148° Southeast 509 586 41,000  Level Salt Lake Center
03:05PM 44.8400 -107.7583 148° Southeast 506 582 41,000  Level Salt Lake Center
03:06PM 44.7231 -107.6556 149° Southeast 506 582 41,000  Level Salt Lake Center
03:07PM 44.6061 -107.5556 149° Southeast 510 587 41,000  Level Salt Lake Center
03:08PM 44.4700 -107.4394 149° Southeast 511 588 41,000  Level Salt Lake Center
03:09PM 44.3547 -107.3408 148° Southeast 509 586 41,000  Level Salt Lake Center
03:10PM 44.2214 -107.2256 148° Southeast 506 582 41,000  Level Salt Lake Center
03:11PM 44.1083 -107.1269 149° Southeast 503 579 41,000  Level Salt Lake Center
03:12PM 43.9742 -107.0133 148° Southeast 504 580 41,000  Level Salt Lake Center
03:13PM 43.8594 -106.9150 149° Southeast 505 581 41,000  Level Salt Lake Center
03:14PM 43.7267 -106.8033 149° Southeast 504 580 41,000  Level Salt Lake Center
03:15PM 43.6114 -106.7089 153° Southeast 503 579 41,000  Level Salt Lake Center
03:16PM 43.4661 -106.6081 163° South 498 573 41,000  Level Denver Center
03:17PM 43.3517 -106.5594 163° South 493 567 41,000  Level Denver Center
03:18PM 43.2081 -106.4994 162° South 493 567 41,000  Level Denver Center
03:19PM 43.0789 -106.4425 163° South 493 567 41,000  Level Denver Center
03:20PM 42.9475 -106.3886 163° South 493 567 41,000  Level Denver Center
03:21PM 42.8289 -106.3378 163° South 501 577 41,000  Level Denver Center
03:22PM 42.6828 -106.2789 164° South 496 571 41,000  Level Denver Center
03:23PM 42.5494 -106.2283 165° South 496 571 41,000  Level Denver Center
03:24PM 42.4283 -106.1839 165° South 491 565 41,000  Level Denver Center
03:25PM 42.2928 -106.1339 165° South 498 573 41,000  Level Denver Center
03:26PM 42.1447 -106.0786 165° South 498 573 41,000 -600 Level Denver Center
03:27PM 42.0092 -106.0292 165° South 503 579 39,900 -900 Descending Denver Center
03:28PM 41.8922 -105.9883 164° South 498 573 39,300 -1,200 Descending Denver Center
03:29PM 41.7503 -105.9336 165° South 485 558 37,500 -1,320 Descending Denver Center
03:30PM 41.6144 -105.8847 165° South 491 565 36,700 -1,020 Descending Denver Center
03:31PM 41.4850 -105.8389 164° South 485 558 35,500 -1,260 Descending Denver Center
03:32PM 41.3681 -105.7956 164° South 485 558 34,200 -1,500 Descending Denver Center
03:33PM 41.2258 -105.7419 166° South 485 558 32,500 -1,440 Descending Denver Center
03:34PM 41.0964 -105.6992 166° South 485 558 31,400 -1,260 Descending Denver Center
03:35PM 40.9647 -105.6567 164° South 485 558 30,000 -1,500 Descending Denver Center
03:36PM 40.8414 -105.6114 156° South 476 548 28,400 -1,320 Descending Denver Center
03:42PM 40.1992 -105.2420 137° Southeast 344 396 20,400 -1,260 Descending FlightAware ADS-B
03:43PM 40.1463 -105.1770 136° Southeast 343 395 19,500 -1,260 Descending FlightAware ADS-B
03:44PM 40.0980 -105.1170 137° Southeast 337 388 18,600 -1,560 Descending FlightAware ADS-B
03:44PM 40.0691 -105.0820 137° Southeast 340 391 17,900 -1,440 Descending FlightAware ADS-B
03:45PM 40.0332 -105.0380 144° Southeast 341 392 17,300 -720 Descending FlightAware ADS-B
03:45PM 40.0089 -105.0150 159° South 330 380 17,300  Level FlightAware ADS-B
03:46PM 39.9703 -104.9960 164° South 318 366 17,300  Level FlightAware ADS-B
03:46PM 39.9098 -104.9740 165° South 318 366 17,300  Level FlightAware ADS-B
03:47PM 39.8649 -104.9580 165° South 317 365 17,300  Level FlightAware ADS-B
03:47PM 39.8187 -104.9420 165° South 317 365 17,300  Level FlightAware ADS-B
03:48PM 39.7739 -104.9260 165° South 318 366 17,300  Level FlightAware ADS-B
03:48PM 39.7288 -104.9100 165° South 321 369 17,300 -540 Level FlightAware ADS-B
03:49PM 39.6758 -104.8910 165° South 321 369 16,700 -1,200 Descending FlightAware ADS-B
03:50PM 39.6326 -104.8760 164° South 319 367 16,000 -1,260 Descending FlightAware ADS-B
03:50PM 39.5886 -104.8600 164° South 311 358 15,400 -1,320 Descending FlightAware ADS-B
03:51PM 39.5446 -104.8440 164° South 311 358 14,600 -1,380 Descending FlightAware ADS-B
03:51PM 39.5029 -104.8290 165° South 305 351 14,000 -1,320 Descending FlightAware ADS-B
03:52PM 39.4548 -104.8120 165° South 305 351 13,200 -1,500 Descending FlightAware ADS-B
03:52PM 39.4134 -104.7980 165° South 304 350 12,400 -840 Descending FlightAware ADS-B
03:53PM 39.3645 -104.7810 164° South 325 374 12,300 -120 Descending FlightAware ADS-B
03:53PM 39.3040 -104.7590 165° South 306 352 12,300  Level FlightAware ADS-B
03:54PM 39.2226 -104.7310 163° South 304 350 12,300 -240 Level FlightAware ADS-B
03:55PM 39.1843 -104.7160 164° South 291 335 12,000 -600 Descending FlightAware ADS-B
03:56PM 39.1422 -104.7000 164° South 274 315 11,700 -900 Descending FlightAware ADS-B
03:56PM 39.0930 -104.6820 183° South 252 290 10,900 -1,320 Descending FlightAware ADS-B
03:57PM 39.0467 -104.6850 180° South 247 284 9,900 -1,080 Descending FlightAware ADS-B
03:57PM 39.0293 -104.6850 180° South 241 277 9,800 -720 Descending FlightAware ADS-B
03:58PM 39.0083 -104.6850 180° South 241 277 9,500 -1,200 Descending FlightAware ADS-B